createdAt,value
2023-04-09T00:01:05.567Z,26.13
2023-04-09T00:03:51.487Z,29.00
2023-04-09T00:06:37.227Z,28.60
2023-04-09T00:09:22.568Z,27.15
2023-04-09T00:12:07.944Z,26.83
2023-04-09T00:14:53.428Z,31.05
2023-04-09T00:17:38.913Z,27.52
2023-04-09T00:20:24.445Z,29.17
2023-04-09T00:23:11.788Z,24.80
2023-04-09T00:25:58.515Z,22.40
2023-04-09T00:28:44.157Z,21.80
2023-04-09T00:31:29.528Z,23.67
2023-04-09T00:34:15.941Z,24.88
2023-04-09T00:37:01.621Z,24.02
2023-04-09T00:39:47.615Z,24.02
2023-04-09T00:42:34.179Z,24.15
2023-04-09T00:45:19.704Z,27.63
2023-04-09T00:48:05.459Z,25.50
2023-04-09T00:50:51.453Z,26.80
2023-04-09T00:53:37.025Z,24.65
2023-04-09T00:56:23.599Z,23.15
2023-04-09T00:59:09.336Z,24.42
2023-04-09T01:01:54.741Z,29.98
2023-04-09T01:04:42.023Z,30.40
2023-04-09T01:07:31.145Z,26.90
2023-04-09T01:10:18.679Z,29.00
2023-04-09T01:13:14.042Z,26.23
2023-04-09T01:16:01.375Z,33.67
2023-04-09T01:19:00.032Z,30.80
2023-04-09T01:21:45.705Z,32.83
2023-04-09T01:24:47.407Z,27.27
2023-04-09T01:27:59.919Z,29.13
2023-04-09T01:30:53.013Z,31.10
2023-04-09T01:33:38.935Z,28.27
2023-04-09T01:36:25.872Z,27.27
2023-04-09T01:39:11.616Z,29.77
2023-04-09T01:41:58.144Z,31.15
2023-04-09T01:44:44.832Z,35.25
2023-04-09T01:47:30.521Z,33.83
2023-04-09T01:50:16.308Z,36.58
2023-04-09T01:53:01.817Z,36.13
2023-04-09T01:55:47.697Z,32.25
2023-04-09T01:58:34.332Z,37.15
2023-04-09T02:01:26.389Z,37.90
2023-04-09T02:04:18.692Z,38.03
2023-04-09T02:07:11.099Z,32.38
2023-04-09T02:09:57.644Z,28.98
2023-04-09T02:12:46.873Z,39.53
2023-04-09T02:15:35.327Z,28.48
2023-04-09T02:18:25.706Z,27.65
2023-04-09T02:21:13.744Z,24.75
2023-04-09T02:23:59.273Z,24.58
2023-04-09T02:26:44.809Z,27.60
2023-04-09T02:29:30.988Z,31.98
2023-04-09T02:32:17.138Z,27.25
2023-04-09T02:35:03.609Z,36.22
2023-04-09T02:37:49.385Z,38.38
2023-04-09T02:40:34.654Z,37.30
2023-04-09T02:43:19.887Z,46.03
2023-04-09T02:46:05.445Z,32.67
2023-04-09T02:48:53.078Z,40.58
2023-04-09T02:51:38.646Z,41.78
2023-04-09T02:54:24.015Z,47.13
2023-04-09T02:57:09.574Z,30.52
2023-04-09T02:59:55.676Z,42.42
2023-04-09T03:02:41.818Z,35.15
2023-04-09T03:05:27.559Z,37.08
2023-04-09T03:08:12.851Z,40.67
2023-04-09T03:10:58.092Z,27.95
2023-04-09T03:13:43.471Z,28.20
2023-04-09T03:16:28.679Z,24.08
2023-04-09T03:19:14.130Z,26.95
2023-04-09T03:22:00.487Z,33.70
2023-04-09T03:24:49.244Z,37.38
2023-04-09T03:27:34.982Z,28.10
2023-04-09T03:30:21.985Z,29.55
2023-04-09T03:33:07.876Z,33.97
2023-04-09T03:36:03.746Z,31.98
2023-04-09T03:41:59.829Z,38.13
2023-04-09T03:44:49.834Z,35.65
2023-04-09T03:47:45.426Z,37.38
2023-04-09T03:50:31.633Z,34.40
2023-04-09T03:53:17.176Z,39.30
2023-04-09T03:56:04.722Z,33.08
2023-04-09T04:01:42.438Z,32.78
2023-04-09T04:04:28.236Z,40.58
2023-04-09T04:07:16.615Z,40.42
2023-04-09T04:10:10.937Z,32.85
2023-04-09T04:13:02.367Z,43.63
2023-04-09T04:16:10.559Z,32.30
2023-04-09T04:18:58.491Z,38.80
2023-04-09T04:21:46.504Z,28.98
2023-04-09T04:24:31.843Z,30.48
2023-04-09T04:27:17.979Z,26.52
2023-04-09T04:30:04.578Z,25.63
2023-04-09T04:33:11.866Z,24.92
2023-04-09T04:36:07.605Z,35.88
2023-04-09T04:39:00.182Z,33.63
2023-04-09T04:42:04.153Z,28.10
2023-04-09T04:44:49.636Z,28.70
2023-04-09T04:47:58.413Z,34.42
2023-04-09T04:50:43.962Z,35.65
2023-04-09T04:53:30.618Z,28.60
2023-04-09T04:56:18.833Z,30.13
2023-04-09T04:59:24.412Z,37.88
2023-04-09T05:02:20.093Z,27.80
2023-04-09T05:05:24.296Z,33.15
2023-04-09T05:08:12.790Z,27.90
2023-04-09T05:10:58.474Z,30.45
2023-04-09T05:13:52.101Z,32.67
2023-04-09T05:16:39.569Z,34.97
2023-04-09T05:19:26.366Z,30.45
2023-04-09T05:22:18.239Z,34.22
2023-04-09T05:25:10.500Z,33.90
2023-04-09T05:27:57.910Z,40.03
2023-04-09T05:30:48.009Z,28.38
2023-04-09T05:33:38.274Z,32.60
2023-04-09T05:36:30.025Z,27.80
2023-04-09T05:39:15.670Z,27.33
2023-04-09T05:42:02.919Z,25.63
2023-04-09T05:44:55.912Z,28.10
2023-04-09T05:47:42.909Z,29.88
2023-04-09T05:50:40.849Z,21.33
2023-04-09T05:53:32.091Z,22.42
2023-04-09T05:56:17.802Z,31.13
2023-04-09T05:59:10.652Z,27.70
2023-04-09T06:01:56.622Z,27.33
2023-04-09T06:04:42.629Z,26.50
2023-04-09T06:07:32.712Z,24.00
2023-04-09T06:10:18.168Z,29.20
2023-04-09T06:13:06.364Z,28.75
2023-04-09T06:15:52.347Z,24.90
2023-04-09T06:18:38.057Z,20.23
2023-04-09T06:21:23.462Z,25.13
2023-04-09T06:24:08.666Z,27.88
2023-04-09T06:26:54.087Z,27.60
2023-04-09T06:29:39.474Z,29.13
2023-04-09T06:32:25.185Z,27.17
2023-04-09T06:35:11.149Z,29.30
2023-04-09T06:37:56.644Z,27.85
2023-04-09T06:40:42.426Z,28.10
2023-04-09T06:43:28.057Z,28.85
2023-04-09T06:46:14.573Z,30.02
2023-04-09T06:49:00.643Z,26.63
2023-04-09T06:51:46.535Z,27.42
2023-04-09T06:54:32.209Z,30.30
2023-04-09T06:57:18.308Z,39.33
2023-04-09T07:00:04.385Z,30.20
2023-04-09T07:02:50.725Z,25.73
2023-04-09T07:05:36.712Z,28.73
2023-04-09T07:08:23.405Z,29.50
2023-04-09T07:11:09.125Z,28.75
2023-04-09T07:13:56.893Z,30.45
2023-04-09T07:16:43.092Z,28.80
2023-04-09T07:19:28.562Z,29.15
2023-04-09T07:22:14.100Z,29.70
2023-04-09T07:24:59.836Z,27.80
2023-04-09T07:27:45.691Z,28.98
2023-04-09T07:30:31.819Z,32.58
2023-04-09T07:33:17.453Z,28.60
2023-04-09T07:36:02.884Z,26.58
2023-04-09T07:38:48.632Z,30.08
2023-04-09T07:41:34.212Z,30.90
2023-04-09T07:44:20.334Z,27.88
2023-04-09T07:47:07.553Z,30.23
2023-04-09T07:49:53.572Z,32.70
2023-04-09T07:52:39.115Z,51.60
2023-04-09T07:55:24.657Z,32.25
2023-04-09T07:58:10.316Z,30.27
2023-04-09T08:00:56.010Z,30.92
2023-04-09T08:03:42.540Z,30.15
2023-04-09T08:06:28.335Z,31.80
2023-04-09T08:09:13.973Z,34.15
2023-04-09T08:11:59.279Z,33.45
2023-04-09T08:14:49.114Z,33.45
2023-04-09T08:17:37.050Z,32.75
2023-04-09T08:20:23.082Z,34.42
2023-04-09T08:23:08.355Z,30.58
2023-04-09T08:25:53.779Z,32.85
2023-04-09T08:28:39.284Z,30.73
2023-04-09T08:31:24.700Z,34.92
2023-04-09T08:34:10.213Z,43.25
2023-04-09T08:36:55.939Z,35.50
2023-04-09T08:39:41.368Z,39.17
2023-04-09T08:42:27.206Z,35.78
2023-04-09T08:45:13.370Z,40.47
2023-04-09T08:47:59.996Z,40.72
2023-04-09T08:50:46.341Z,38.88
2023-04-09T08:53:32.347Z,41.70
2023-04-09T08:56:18.563Z,37.42
2023-04-09T08:59:03.861Z,37.45
2023-04-09T09:01:54.563Z,46.03
2023-04-09T09:04:47.680Z,35.78
2023-04-09T09:07:34.254Z,39.17
2023-04-09T09:10:19.928Z,40.38
2023-04-09T09:13:24.948Z,40.72
2023-04-09T09:16:15.253Z,38.03
2023-04-09T09:19:01.985Z,38.53
2023-04-09T09:21:58.721Z,39.50
2023-04-09T09:24:50.427Z,41.05
2023-04-09T09:27:39.486Z,38.78
2023-04-09T09:30:26.793Z,40.50
2023-04-09T09:33:12.367Z,41.30
2023-04-09T09:35:57.935Z,43.00
2023-04-09T09:38:57.479Z,38.33
2023-04-09T09:41:43.742Z,37.90
2023-04-09T09:44:33.609Z,40.13
2023-04-09T09:47:19.941Z,43.65
2023-04-09T09:50:05.967Z,40.42
2023-04-09T09:52:58.375Z,41.17
2023-04-09T09:55:48.442Z,41.30
2023-04-09T09:58:41.057Z,42.85
2023-04-09T10:01:28.050Z,41.90
2023-04-09T10:04:15.093Z,43.78
2023-04-09T10:07:03.426Z,46.25
2023-04-09T10:09:53.389Z,45.22
2023-04-09T10:12:41.848Z,41.60
2023-04-09T10:15:33.088Z,42.95
2023-04-09T10:18:19.108Z,41.17
2023-04-09T10:21:26.766Z,45.00
2023-04-09T10:24:12.546Z,42.78
2023-04-09T10:27:09.672Z,44.25
2023-04-09T10:29:55.570Z,39.65
2023-04-09T10:32:44.788Z,42.40
2023-04-09T10:35:30.800Z,42.47
2023-04-09T10:38:16.529Z,43.03
2023-04-09T10:41:16.086Z,40.95
2023-04-09T10:44:06.693Z,41.88
2023-04-09T10:46:56.332Z,42.20
2023-04-09T10:49:42.253Z,40.40
2023-04-09T10:52:30.631Z,40.95
2023-04-09T10:55:38.524Z,46.10
2023-04-09T10:58:24.248Z,43.67
2023-04-09T11:01:10.298Z,45.00
2023-04-09T11:04:10.737Z,44.45
2023-04-09T11:06:57.421Z,43.30
2023-04-09T11:09:43.137Z,41.88
2023-04-09T11:12:28.903Z,41.58
2023-04-09T11:15:19.022Z,43.17
2023-04-09T11:18:07.076Z,42.22
2023-04-09T11:21:00.862Z,45.45
2023-04-09T11:23:52.428Z,43.72
2023-04-09T11:26:38.405Z,46.53
2023-04-09T11:29:24.063Z,46.78
2023-04-09T11:32:09.378Z,47.33
2023-04-09T11:34:54.881Z,43.58
2023-04-09T11:37:41.162Z,44.90
2023-04-09T11:40:29.229Z,46.50
2023-04-09T11:43:18.858Z,48.45
2023-04-09T11:46:06.056Z,46.45
2023-04-09T11:48:53.708Z,44.65
2023-04-09T11:51:39.668Z,48.92
2023-04-09T11:54:28.132Z,46.50
2023-04-09T11:57:13.436Z,52.17
2023-04-09T11:59:58.787Z,49.22
2023-04-09T12:02:46.565Z,46.65
2023-04-09T12:05:34.025Z,47.13
2023-04-09T12:08:23.878Z,47.40
2023-04-09T12:11:11.462Z,46.63
2023-04-09T12:14:06.635Z,45.40
2023-04-09T12:16:52.653Z,37.08
2023-04-09T12:19:38.131Z,45.78
2023-04-09T12:22:24.032Z,39.03
2023-04-09T12:25:09.956Z,42.30
2023-04-09T12:27:56.573Z,43.40
2023-04-09T12:30:42.969Z,43.78
2023-04-09T12:33:28.659Z,44.83
2023-04-09T12:36:14.420Z,27.52
2023-04-09T12:39:00.858Z,22.70
2023-04-09T12:41:46.281Z,24.00
2023-04-09T12:44:33.184Z,25.45
2023-04-09T12:47:19.225Z,34.95
2023-04-09T12:50:04.851Z,18.88
2023-04-09T12:52:50.897Z,25.08
2023-04-09T12:55:36.844Z,23.83
2023-04-09T12:58:22.433Z,14.10
2023-04-09T13:01:08.316Z,29.27
2023-04-09T13:03:55.020Z,29.60
2023-04-09T13:06:41.534Z,29.25
2023-04-09T13:09:28.503Z,29.23
2023-04-09T13:12:18.392Z,17.00
2023-04-09T13:15:04.313Z,26.77
2023-04-09T13:17:50.382Z,30.58
2023-04-09T13:20:36.251Z,29.15
2023-04-09T13:23:21.986Z,31.83
2023-04-09T13:26:07.532Z,25.08
2023-04-09T13:28:53.595Z,35.92
2023-04-09T13:31:39.213Z,22.63
2023-04-09T13:34:25.048Z,32.78
2023-04-09T13:37:10.529Z,24.08
2023-04-09T13:39:55.945Z,37.40
2023-04-09T13:42:41.125Z,30.77
2023-04-09T13:45:26.682Z,50.35
2023-04-09T13:48:14.104Z,40.58
2023-04-09T13:51:00.681Z,21.52
2023-04-09T13:53:46.625Z,37.40
2023-04-09T13:56:32.544Z,21.58
2023-04-09T13:59:18.135Z,44.45
2023-04-09T14:02:04.682Z,35.05
2023-04-09T14:04:50.585Z,22.15
2023-04-09T14:07:36.018Z,37.90
2023-04-09T14:10:21.324Z,33.30
2023-04-09T14:13:07.424Z,31.75
2023-04-09T14:15:53.744Z,30.73
2023-04-09T14:18:40.033Z,36.30
2023-04-09T14:21:26.912Z,22.42
2023-04-09T14:24:12.863Z,35.88
2023-04-09T14:26:59.558Z,31.08
2023-04-09T14:29:44.907Z,32.53
2023-04-09T14:32:30.354Z,32.63
2023-04-09T14:35:15.661Z,39.85
2023-04-09T14:38:04.352Z,27.38
2023-04-09T14:40:53.190Z,34.83
2023-04-09T14:43:39.651Z,33.08
2023-04-09T14:46:24.963Z,26.48
2023-04-09T14:49:10.394Z,38.40
2023-04-09T14:51:56.566Z,25.60
2023-04-09T14:54:42.440Z,33.17
2023-04-09T14:57:27.820Z,35.00
2023-04-09T15:00:13.798Z,38.20
2023-04-09T15:03:00.293Z,33.63
2023-04-09T15:05:46.194Z,35.47
2023-04-09T15:08:31.748Z,29.35
2023-04-09T15:11:18.467Z,34.35
2023-04-09T15:14:03.926Z,27.52
2023-04-09T15:16:49.345Z,29.17
2023-04-09T15:19:35.369Z,27.83
2023-04-09T15:22:21.479Z,35.00
2023-04-09T15:25:08.482Z,23.63
2023-04-09T15:27:54.341Z,35.13
2023-04-09T15:30:39.664Z,32.17
2023-04-09T15:33:27.283Z,33.45
2023-04-09T15:36:13.131Z,33.33
2023-04-09T15:38:58.968Z,28.42
2023-04-09T15:41:44.478Z,32.50
2023-04-09T15:44:29.953Z,26.35
2023-04-09T15:47:15.641Z,39.92
2023-04-09T15:50:01.228Z,31.85
2023-04-09T15:52:46.695Z,14.98
2023-04-09T15:55:32.261Z,25.73
2023-04-09T15:58:17.913Z,20.92
2023-04-09T16:01:07.873Z,31.55
2023-04-09T16:03:53.829Z,32.13
2023-04-09T16:06:39.604Z,14.02
2023-04-09T16:09:25.131Z,28.85
2023-04-09T16:12:11.103Z,41.10
2023-04-09T16:14:56.473Z,28.08
2023-04-09T16:17:41.992Z,31.83
2023-04-09T16:20:29.352Z,20.98
2023-04-09T16:23:15.511Z,25.73
2023-04-09T16:26:01.212Z,28.90
2023-04-09T16:28:48.905Z,21.83
2023-04-09T16:31:36.852Z,37.38
2023-04-09T16:34:23.348Z,40.35
2023-04-09T16:37:08.860Z,28.48
2023-04-09T16:39:54.438Z,33.13
2023-04-09T16:42:39.841Z,24.45
2023-04-09T16:45:25.439Z,24.45
2023-04-09T16:48:12.618Z,22.30
2023-04-09T16:50:58.296Z,45.08
2023-04-09T16:53:43.918Z,47.17
2023-04-09T16:56:29.810Z,51.10
2023-04-09T16:59:18.375Z,62.10
2023-04-09T17:02:04.268Z,57.42
2023-04-09T17:04:51.554Z,53.45
2023-04-09T17:07:37.292Z,56.50
2023-04-09T17:10:22.947Z,53.38
2023-04-09T17:13:09.254Z,54.85
2023-04-09T17:15:54.896Z,49.85
2023-04-09T17:18:41.522Z,52.22
2023-04-09T17:21:27.907Z,56.67
2023-04-09T17:24:13.510Z,57.70
2023-04-09T17:26:59.311Z,54.28
2023-04-09T17:29:44.957Z,52.10
2023-04-09T17:32:30.769Z,49.92
2023-04-09T17:35:16.879Z,48.92
2023-04-09T17:38:02.331Z,77.25
2023-04-09T17:40:48.133Z,62.42
2023-04-09T17:43:33.604Z,57.90
2023-04-09T17:46:18.949Z,59.50
2023-04-09T17:49:05.159Z,58.95
2023-04-09T17:51:51.362Z,55.28
2023-04-09T17:54:38.694Z,60.00
2023-04-09T17:57:24.149Z,55.72
2023-04-09T18:00:11.038Z,56.92
2023-04-09T18:03:04.731Z,52.88
2023-04-09T18:05:50.329Z,48.80
2023-04-09T18:08:37.534Z,49.40
2023-04-09T18:11:27.116Z,54.85
2023-04-09T18:14:12.446Z,53.08
2023-04-09T18:16:58.199Z,49.58
2023-04-09T18:19:43.981Z,45.85
2023-04-09T18:22:29.474Z,49.60
2023-04-09T18:25:23.743Z,49.15
2023-04-09T18:28:12.706Z,44.38
2023-04-09T18:30:59.000Z,48.97
2023-04-09T18:33:44.784Z,46.92
2023-04-09T18:36:31.089Z,50.38
2023-04-09T18:39:17.286Z,55.33
2023-04-09T18:42:03.670Z,51.95
2023-04-09T18:44:49.624Z,49.38
2023-04-09T18:47:37.791Z,51.03
2023-04-09T18:50:30.796Z,53.13
2023-04-09T18:53:16.763Z,46.42
2023-04-09T18:56:02.345Z,50.95
2023-04-09T18:58:48.599Z,44.60
2023-04-09T19:01:34.058Z,51.97
2023-04-09T19:04:20.072Z,52.00
2023-04-09T19:07:10.008Z,52.92
2023-04-09T19:09:55.418Z,48.97
2023-04-09T19:12:47.521Z,55.17
2023-04-09T19:15:33.099Z,50.00
2023-04-09T19:18:18.770Z,44.58
2023-04-09T19:21:05.987Z,53.13
2023-04-09T19:23:51.652Z,49.33
2023-04-09T19:26:37.340Z,43.97
2023-04-09T19:29:22.988Z,92.50
2023-04-09T19:32:09.385Z,72.15
2023-04-09T19:34:55.902Z,76.05
2023-04-09T19:37:41.645Z,96.95
2023-04-09T19:40:26.763Z,61.10
2023-04-09T19:43:12.538Z,74.13
2023-04-09T19:45:58.304Z,98.00
2023-04-09T19:48:44.779Z,80.60
2023-04-09T19:51:30.518Z,74.95
2023-04-09T19:54:16.715Z,73.97
2023-04-09T19:57:03.610Z,71.88
2023-04-09T19:59:50.040Z,60.85
2023-04-09T20:02:37.690Z,52.25
2023-04-09T20:05:23.234Z,60.75
2023-04-09T20:08:12.274Z,60.45
2023-04-09T20:11:01.090Z,67.63
2023-04-09T20:13:48.074Z,58.95
2023-04-09T20:16:34.082Z,68.00
2023-04-09T20:19:19.703Z,63.10
2023-04-09T20:22:06.361Z,66.30
2023-04-09T20:24:52.278Z,63.85
2023-04-09T20:27:38.946Z,57.30
2023-04-09T20:30:25.639Z,59.03
2023-04-09T20:33:11.713Z,57.97
2023-04-09T20:35:57.096Z,58.20
2023-04-09T20:38:43.301Z,62.05
2023-04-09T20:41:29.141Z,63.65
2023-04-09T20:44:14.680Z,58.35
2023-04-09T20:47:00.606Z,62.03
2023-04-09T20:49:46.946Z,63.45
2023-04-09T20:52:32.368Z,59.42
2023-04-09T20:55:20.472Z,61.47
2023-04-09T20:58:06.672Z,68.60
2023-04-09T21:00:52.424Z,75.68
2023-04-09T21:03:40.148Z,75.05
2023-04-09T21:06:26.061Z,87.28
2023-04-09T21:09:11.909Z,81.53
2023-04-09T21:11:58.706Z,101.80
2023-04-09T21:18:42.129Z,82.30
2023-04-09T21:21:31.442Z,71.70
2023-04-09T21:24:21.701Z,78.43
2023-04-09T21:27:07.492Z,71.25
2023-04-09T21:29:53.694Z,65.63
2023-04-09T21:32:39.375Z,76.57
2023-04-09T21:35:25.761Z,65.93
2023-04-09T21:38:14.808Z,70.28
2023-04-09T21:41:10.686Z,100.50
2023-04-09T21:43:57.150Z,97.75
2023-04-09T21:46:43.249Z,93.95
2023-04-09T21:49:31.857Z,72.47
2023-04-09T21:52:17.798Z,63.38
2023-04-09T21:55:03.596Z,78.03
2023-04-09T21:57:48.963Z,69.80
2023-04-09T22:00:34.349Z,60.95
2023-04-09T22:03:20.136Z,71.00
2023-04-09T22:06:06.164Z,64.75
2023-04-09T22:08:56.028Z,65.97
2023-04-09T22:11:42.723Z,64.15
2023-04-09T22:14:29.676Z,73.53
2023-04-09T22:17:16.011Z,64.85
2023-04-09T22:20:01.734Z,65.03
2023-04-09T22:22:48.324Z,61.25
2023-04-09T22:25:35.384Z,64.22
2023-04-09T22:28:21.334Z,63.58
2023-04-09T22:31:07.242Z,60.00
2023-04-09T22:33:52.963Z,65.80
2023-04-09T22:36:38.610Z,68.47
2023-04-09T22:39:24.046Z,70.25
2023-04-09T22:42:10.795Z,62.13
2023-04-09T22:44:56.628Z,63.72
2023-04-09T22:47:42.844Z,65.38
2023-04-09T22:50:29.241Z,64.90
2023-04-09T22:53:23.143Z,61.00
2023-04-09T22:56:09.561Z,56.90
2023-04-09T22:58:55.160Z,56.65
2023-04-09T23:01:41.728Z,60.80
2023-04-09T23:04:30.597Z,55.80
2023-04-09T23:07:15.961Z,58.35
2023-04-09T23:10:06.061Z,55.58
2023-04-09T23:12:54.887Z,61.75
2023-04-09T23:15:41.385Z,56.17
2023-04-09T23:18:28.301Z,52.67
2023-04-09T23:21:14.307Z,61.03
2023-04-09T23:24:01.213Z,61.25
2023-04-09T23:26:47.999Z,56.67
2023-04-09T23:29:33.557Z,55.92
2023-04-09T23:32:18.811Z,54.97
2023-04-09T23:35:04.491Z,57.13
2023-04-09T23:37:50.072Z,54.58
2023-04-09T23:40:35.632Z,56.55
2023-04-09T23:43:21.207Z,56.90
2023-04-09T23:46:06.753Z,63.85
2023-04-09T23:48:52.332Z,63.70
2023-04-09T23:51:37.735Z,60.83
2023-04-09T23:54:23.479Z,62.72
2023-04-09T23:57:08.936Z,63.88
2023-04-09T23:59:54.579Z,58.92
